Time,TemperatureF,DewpointF,PressureIn,WindDirection,WindDirectionDegrees,WindSpeedMPH,WindSpeedGustMPH,Humidity,HourlyPrecipIn,Conditions,Clouds,dailyrainin,SoftwareType,DateUTC
2013-01-01 00:03:00,42.0,-99.9,29.98,West,269,16.0,18.0,-999,-99.99,,,-99.99,,2013-01-01 05:03:00,
2013-01-01 00:12:00,42.0,-99.9,29.97,West,265,17.0,19.0,-999,-99.99,,,-99.99,,2013-01-01 05:12:00,
2013-01-01 00:22:00,42.0,-99.9,29.97,West,271,17.0,19.0,-999,-99.99,,,-99.99,,2013-01-01 05:22:00,
2013-01-01 00:33:00,42.0,-99.9,29.96,West,271,16.0,19.0,-999,-99.99,,,-99.99,,2013-01-01 05:33:00,
2013-01-01 00:42:00,42.0,-99.9,29.96,West,268,17.0,19.0,-999,-99.99,,,-99.99,,2013-01-01 05:42:00,
2013-01-01 00:53:00,42.0,-99.9,29.96,West,274,16.0,18.0,-999,-99.99,,,-99.99,,2013-01-01 05:53:00,
2013-01-01 01:02:00,42.0,-99.9,29.96,West,273,17.0,19.0,-999,-99.99,,,-99.99,,2013-01-01 06:02:00,
2013-01-01 01:12:00,42.0,-99.9,29.95,West,274,16.0,18.0,-999,-99.99,,,-99.99,,2013-01-01 06:12:00,
2013-01-01 01:22:00,42.0,-99.9,29.95,West,268,15.0,17.0,-999,-99.99,,,-99.99,,2013-01-01 06:22:00,
2013-01-01 01:33:00,42.0,-99.9,29.94,West,268,16.0,18.0,-999,-99.99,,,-99.99,,2013-01-01 06:33:00,
2013-01-01 01:43:00,42.0,-99.9,29.94,West,277,14.0,15.0,-999,-99.99,,,-99.99,,2013-01-01 06:43:00,
2013-01-01 01:52:00,42.0,-99.9,29.94,West,270,12.0,13.0,-999,-99.99,,,-99.99,,2013-01-01 06:52:00,
2013-01-01 02:02:00,42.0,-99.9,29.94,West,268,12.0,14.0,-999,-99.99,,,-99.99,,2013-01-01 07:02:00,
2013-01-01 02:12:00,42.0,-99.9,29.95,West,271,15.0,17.0,-999,-99.99,,,-99.99,,2013-01-01 07:12:00,
2013-01-01 02:22:00,42.0,-99.9,29.95,West,275,16.0,17.0,-999,-99.99,,,-99.99,,2013-01-01 07:22:00,
2013-01-01 02:32:00,42.0,-99.9,29.96,West,281,15.0,17.0,-999,-99.99,,,-99.99,,2013-01-01 07:32:00,
2013-01-01 02:43:00,42.0,-99.9,29.96,West,280,17.0,19.0,-999,-99.99,,,-99.99,,2013-01-01 07:43:00,
2013-01-01 02:53:00,42.0,-99.9,29.96,WNW,283,18.0,20.0,-999,-99.99,,,-99.99,,2013-01-01 07:53:00,
2013-01-01 03:02:00,42.0,-99.9,29.96,WNW,284,17.0,21.0,-999,-99.99,,,-99.99,,2013-01-01 08:02:00,
2013-01-01 03:12:00,42.0,-99.9,29.95,WNW,288,15.0,19.0,-999,-99.99,,,-99.99,,2013-01-01 08:12:00,
2013-01-01 03:22:00,42.0,-99.9,29.96,WNW,287,17.0,19.0,-999,-99.99,,,-99.99,,2013-01-01 08:22:00,
2013-01-01 03:32:00,42.0,-99.9,29.96,WNW,288,15.0,18.0,-999,-99.99,,,-99.99,,2013-01-01 08:32:00,
2013-01-01 03:42:00,42.0,-99.9,29.96,WNW,295,14.0,17.0,-999,-99.99,,,-99.99,,2013-01-01 08:42:00,
2013-01-01 03:53:00,42.0,-99.9,29.96,WNW,291,14.0,17.0,-999,-99.99,,,-99.99,,2013-01-01 08:53:00,
2013-01-01 04:02:00,42.0,-99.9,29.95,West,278,15.0,16.0,-999,-99.99,,,-99.99,,2013-01-01 09:02:00,
2013-01-01 04:12:00,41.0,-99.9,29.94,West,277,15.0,16.0,-999,-99.99,,,-99.99,,2013-01-01 09:12:00,
2013-01-01 04:22:00,42.0,-99.9,29.94,WNW,283,16.0,21.0,-999,-99.99,,,-99.99,,2013-01-01 09:22:00,
2013-01-01 04:32:00,41.0,-99.9,29.94,West,279,15.0,17.0,-999,-99.99,,,-99.99,,2013-01-01 09:32:00,
2013-01-01 04:42:00,41.0,-99.9,29.94,West,279,14.0,15.0,-999,-99.99,,,-99.99,,2013-01-01 09:42:00,
2013-01-01 04:53:00,41.0,-99.9,29.94,WNW,286,12.0,13.0,-999,-99.99,,,-99.99,,2013-01-01 09:53:00,
2013-01-01 05:02:00,41.0,-99.9,29.94,WNW,287,12.0,14.0,-999,-99.99,,,-99.99,,2013-01-01 10:02:00,
2013-01-01 05:12:00,41.0,-99.9,29.94,West,280,11.0,13.0,-999,-99.99,,,-99.99,,2013-01-01 10:12:00,
2013-01-01 05:22:00,41.0,-99.9,29.94,West,275,13.0,15.0,-999,-99.99,,,-99.99,,2013-01-01 10:22:00,
2013-01-01 05:33:00,41.0,-99.9,29.93,West,276,15.0,16.0,-999,-99.99,,,-99.99,,2013-01-01 10:33:00,
2013-01-01 05:43:00,41.0,-99.9,29.93,West,278,14.0,16.0,-999,-99.99,,,-99.99,,2013-01-01 10:43:00,
2013-01-01 05:53:00,41.0,-99.9,29.94,WNW,282,14.0,16.0,-999,-99.99,,,-99.99,,2013-01-01 10:53:00,
2013-01-01 06:02:00,41.0,-99.9,29.94,West,281,14.0,16.0,-999,-99.99,,,-99.99,,2013-01-01 11:02:00,
2013-01-01 06:12:00,41.0,-99.9,29.94,West,276,14.0,15.0,-999,-99.99,,,-99.99,,2013-01-01 11:12:00,
2013-01-01 06:23:00,41.0,-99.9,29.94,West,279,11.0,12.0,-999,-99.99,,,-99.99,,2013-01-01 11:23:00,
2013-01-01 06:33:00,41.0,-99.9,29.95,WNW,282,11.0,13.0,-999,-99.99,,,-99.99,,2013-01-01 11:33:00,
2013-01-01 06:43:00,41.0,-99.9,29.95,WNW,286,11.0,13.0,-999,-99.99,,,-99.99,,2013-01-01 11:43:00,
2013-01-01 06:53:00,41.0,-99.9,29.96,West,279,13.0,15.0,-999,-99.99,,,-99.99,,2013-01-01 11:53:00,
2013-01-01 07:03:00,41.0,-99.9,29.95,West,281,14.0,15.0,-999,-99.99,,,-99.99,,2013-01-01 12:03:00,
2013-01-01 07:12:00,42.0,-99.9,29.94,WNW,286,12.0,14.0,-999,-99.99,,,-99.99,,2013-01-01 12:12:00,
2013-01-01 07:22:00,42.0,-99.9,29.95,WNW,285,12.0,14.0,-999,-99.99,,,-99.99,,2013-01-01 12:22:00,
2013-01-01 07:33:00,42.0,-99.9,29.95,WNW,283,13.0,15.0,-999,-99.99,,,-99.99,,2013-01-01 12:33:00,
2013-01-01 07:43:00,41.0,-99.9,29.95,West,276,12.0,13.0,-999,-99.99,,,-99.99,,2013-01-01 12:43:00,
2013-01-01 07:53:00,41.0,-99.9,29.96,West,280,13.0,14.0,-999,-99.99,,,-99.99,,2013-01-01 12:53:00,
2013-01-01 08:03:00,42.0,-99.9,29.96,West,278,14.0,15.0,-999,-99.99,,,-99.99,,2013-01-01 13:03:00,
2013-01-01 08:12:00,42.0,-99.9,29.97,WNW,286,13.0,15.0,-999,-99.99,,,-99.99,,2013-01-01 13:12:00,
2013-01-01 08:22:00,42.0,-99.9,29.95,WNW,297,12.0,15.0,-999,-99.99,,,-99.99,,2013-01-01 13:22:00,
2013-01-01 08:33:00,42.0,-99.9,29.96,NW,304,14.0,17.0,-999,-99.99,,,-99.99,,2013-01-01 13:33:00,
2013-01-01 08:43:00,42.0,-99.9,29.96,WNW,286,13.0,15.0,-999,-99.99,,,-99.99,,2013-01-01 13:43:00,
2013-01-01 08:53:00,42.0,-99.9,29.95,West,278,13.0,14.0,-999,-99.99,,,-99.99,,2013-01-01 13:53:00,
2013-01-01 09:03:00,42.0,-99.9,29.96,West,280,13.0,16.0,-999,-99.99,,,-99.99,,2013-01-01 14:03:00,
2013-01-01 09:12:00,42.0,-99.9,29.96,WNW,295,11.0,13.0,-999,-99.99,,,-99.99,,2013-01-01 14:12:00,
2013-01-01 09:22:00,42.0,-99.9,29.96,WNW,299,9.0,11.0,-999,-99.99,,,-99.99,,2013-01-01 14:22:00,
2013-01-01 09:33:00,42.0,-99.9,29.95,WNW,301,8.0,10.0,-999,-99.99,,,-99.99,,2013-01-01 14:33:00,
2013-01-01 09:43:00,42.0,-99.9,29.96,NW,313,9.0,11.0,-999,-99.99,,,-99.99,,2013-01-01 14:43:00,
2013-01-01 09:53:00,42.0,-99.9,29.96,NW,314,11.0,13.0,-999,-99.99,,,-99.99,,2013-01-01 14:53:00,
2013-01-01 10:03:00,42.0,-99.9,29.96,NW,312,9.0,11.0,-999,-99.99,,,-99.99,,2013-01-01 15:03:00,
2013-01-01 10:13:00,42.0,-99.9,29.96,NW,314,10.0,12.0,-999,-99.99,,,-99.99,,2013-01-01 15:13:00,
2013-01-01 10:22:00,42.0,-99.9,29.96,WNW,302,10.0,12.0,-999,-99.99,,,-99.99,,2013-01-01 15:22:00,
2013-01-01 10:33:00,42.0,-99.9,29.96,WNW,292,10.0,13.0,-999,-99.99,,,-99.99,,2013-01-01 15:33:00,
2013-01-01 10:43:00,42.0,-99.9,29.96,WNW,283,10.0,11.0,-999,-99.99,,,-99.99,,2013-01-01 15:43:00,
2013-01-01 10:53:00,42.0,-99.9,29.96,West,271,11.0,12.0,-999,-99.99,,,-99.99,,2013-01-01 15:53:00,
2013-01-01 11:02:00,42.0,-99.9,29.95,West,278,11.0,12.0,-999,-99.99,,,-99.99,,2013-01-01 16:02:00,
2013-01-01 11:12:00,43.0,-99.9,29.95,WNW,294,9.0,11.0,-999,-99.99,,,-99.99,,2013-01-01 16:12:00,
2013-01-01 11:23:00,43.0,-99.9,29.95,WNW,296,10.0,13.0,-999,-99.99,,,-99.99,,2013-01-01 16:23:00,
2013-01-01 11:33:00,43.0,-99.9,29.94,WNW,299,9.0,12.0,-999,-99.99,,,-99.99,,2013-01-01 16:33:00,
2013-01-01 11:43:00,42.0,-99.9,29.94,WNW,294,7.0,8.0,-999,-99.99,,,-99.99,,2013-01-01 16:43:00,
2013-01-01 11:53:00,42.0,-99.9,29.93,NW,304,6.0,8.0,-999,-99.99,,,-99.99,,2013-01-01 16:53:00,
2013-01-01 12:03:00,42.0,-99.9,29.93,WNW,301,6.0,7.0,-999,-99.99,,,-99.99,,2013-01-01 17:03:00,
2013-01-01 12:12:00,42.0,-99.9,29.92,West,278,6.0,6.0,-999,-99.99,,,-99.99,,2013-01-01 17:12:00,
2013-01-01 12:23:00,42.0,-99.9,29.90,West,265,6.0,6.0,-999,-99.99,,,-99.99,,2013-01-01 17:23:00,
2013-01-01 12:33:00,42.0,-99.9,29.92,WNW,288,7.0,8.0,-999,-99.99,,,-99.99,,2013-01-01 17:33:00,
2013-01-01 12:43:00,42.0,-99.9,29.92,NW,312,8.0,9.0,-999,-99.99,,,-99.99,,2013-01-01 17:43:00,
2013-01-01 12:53:00,42.0,-99.9,29.90,WNW,289,9.0,10.0,-999,-99.99,,,-99.99,,2013-01-01 17:53:00,
2013-01-01 13:03:00,42.0,-99.9,29.90,WNW,292,9.0,10.0,-999,-99.99,,,-99.99,,2013-01-01 18:03:00,
2013-01-01 13:13:00,43.0,-99.9,29.90,NW,304,9.0,12.0,-999,-99.99,,,-99.99,,2013-01-01 18:13:00,
2013-01-01 13:23:00,43.0,-99.9,29.91,NW,315,11.0,13.0,-999,-99.99,,,-99.99,,2013-01-01 18:23:00,
2013-01-01 13:33:00,43.0,-99.9,29.91,NW,323,11.0,14.0,-999,-99.99,,,-99.99,,2013-01-01 18:33:00,
2013-01-01 13:43:00,42.0,-99.9,29.89,NW,311,9.0,10.0,-999,-99.99,,,-99.99,,2013-01-01 18:43:00,
2013-01-01 13:53:00,42.0,-99.9,29.90,NW,315,9.0,10.0,-999,-99.99,,,-99.99,,2013-01-01 18:53:00,
2013-01-01 14:02:00,42.0,-99.9,29.90,NW,322,9.0,10.0,-999,-99.99,,,-99.99,,2013-01-01 19:02:00,
2013-01-01 14:12:00,42.0,-99.9,29.88,NW,318,7.0,9.0,-999,-99.99,,,-99.99,,2013-01-01 19:12:00,
2013-01-01 14:22:00,42.0,-99.9,29.86,NW,311,6.0,7.0,-999,-99.99,,,-99.99,,2013-01-01 19:22:00,
2013-01-01 14:33:00,42.0,-99.9,29.87,NW,317,9.0,11.0,-999,-99.99,,,-99.99,,2013-01-01 19:33:00,
2013-01-01 14:43:00,43.0,-99.9,29.86,NW,321,6.0,9.0,-999,-99.99,,,-99.99,,2013-01-01 19:43:00,
2013-01-01 14:53:00,43.0,-99.9,29.86,NNW,329,4.0,8.0,-999,-99.99,,,-99.99,,2013-01-01 19:53:00,
2013-01-01 15:02:00,43.0,-99.9,29.87,North,352,5.0,9.0,-999,-99.99,,,-99.99,,2013-01-01 20:02:00,
2013-01-01 15:13:00,41.0,-99.9,29.88,NNW,346,8.0,11.0,-999,-99.99,,,-99.99,,2013-01-01 20:13:00,
2013-01-01 15:23:00,42.0,-99.9,29.90,NNW,337,9.0,14.0,-999,-99.99,,,-99.99,,2013-01-01 20:23:00,
2013-01-01 15:33:00,41.0,-99.9,29.90,NNW,337,9.0,13.0,-999,-99.99,,,-99.99,,2013-01-01 20:33:00,
2013-01-01 15:43:00,41.0,-99.9,29.90,NNW,335,8.0,12.0,-999,-99.99,,,-99.99,,2013-01-01 20:43:00,
2013-01-01 15:53:00,41.0,-99.9,29.90,NNW,342,10.0,13.0,-999,-99.99,,,-99.99,,2013-01-01 20:53:00,
2013-01-01 16:03:00,41.0,-99.9,29.90,NNW,342,9.0,13.0,-999,-99.99,,,-99.99,,2013-01-01 21:03:00,
2013-01-01 16:13:00,41.0,-99.9,29.90,NNW,338,10.0,13.0,-999,-99.99,,,-99.99,,2013-01-01 21:13:00,
2013-01-01 16:22:00,41.0,-99.9,29.91,NNW,336,9.0,14.0,-999,-99.99,,,-99.99,,2013-01-01 21:22:00,
2013-01-01 16:33:00,41.0,-99.9,29.91,NNW,336,11.0,15.0,-999,-99.99,,,-99.99,,2013-01-01 21:33:00,
2013-01-01 16:43:00,41.0,-99.9,29.91,NNW,330,10.0,14.0,-999,-99.99,,,-99.99,,2013-01-01 21:43:00,
2013-01-01 16:53:00,41.0,-99.9,29.91,NNW,330,11.0,15.0,-999,-99.99,,,-99.99,,2013-01-01 21:53:00,
2013-01-01 17:03:00,41.0,-99.9,29.91,NNW,329,10.0,12.0,-999,-99.99,,,-99.99,,2013-01-01 22:03:00,
2013-01-01 17:13:00,41.0,-99.9,29.91,NNW,329,10.0,13.0,-999,-99.99,,,-99.99,,2013-01-01 22:13:00,
2013-01-01 17:23:00,41.0,-99.9,29.92,NNW,327,10.0,13.0,-999,-99.99,,,-99.99,,2013-01-01 22:23:00,
2013-01-01 17:33:00,41.0,-99.9,29.92,NW,326,9.0,11.0,-999,-99.99,,,-99.99,,2013-01-01 22:33:00,
2013-01-01 17:43:00,41.0,-99.9,29.93,NW,325,9.0,11.0,-999,-99.99,,,-99.99,,2013-01-01 22:43:00,
2013-01-01 17:53:00,41.0,-99.9,29.92,NNW,328,7.0,9.0,-999,-99.99,,,-99.99,,2013-01-01 22:53:00,
2013-01-01 18:03:00,40.0,-99.9,29.93,NW,326,8.0,10.0,-999,-99.99,,,-99.99,,2013-01-01 23:03:00,
2013-01-01 18:13:00,41.0,-99.9,29.93,NW,321,8.0,10.0,-999,-99.99,,,-99.99,,2013-01-01 23:13:00,
2013-01-01 18:22:00,41.0,-99.9,29.93,NW,325,8.0,10.0,-999,-99.99,,,-99.99,,2013-01-01 23:22:00,
2013-01-01 18:33:00,41.0,-99.9,29.94,NW,324,9.0,10.0,-999,-99.99,,,-99.99,,2013-01-01 23:33:00,
2013-01-01 18:42:00,40.0,-99.9,29.93,NW,325,8.0,10.0,-999,-99.99,,,-99.99,,2013-01-01 23:42:00,
2013-01-01 18:53:00,40.0,-99.9,29.94,NW,325,7.0,9.0,-999,-99.99,,,-99.99,,2013-01-01 23:53:00,
2013-01-01 19:03:00,40.0,-99.9,29.95,NNW,328,8.0,10.0,-999,-99.99,,,-99.99,,2013-01-02 00:03:00,
2013-01-01 19:12:00,40.0,-99.9,29.95,NNW,328,9.0,12.0,-999,-99.99,,,-99.99,,2013-01-02 00:12:00,
2013-01-01 19:22:00,40.0,-99.9,29.95,NW,326,9.0,11.0,-999,-99.99,,,-99.99,,2013-01-02 00:22:00,
2013-01-01 19:33:00,40.0,-99.9,29.95,NW,322,9.0,11.0,-999,-99.99,,,-99.99,,2013-01-02 00:33:00,
2013-01-01 19:43:00,40.0,-99.9,29.96,NW,326,8.0,10.0,-999,-99.99,,,-99.99,,2013-01-02 00:43:00,
2013-01-01 19:53:00,40.0,-99.9,29.96,NNW,328,9.0,10.0,-999,-99.99,,,-99.99,,2013-01-02 00:53:00,
2013-01-01 20:02:00,40.0,-99.9,29.96,NNW,329,8.0,10.0,-999,-99.99,,,-99.99,,2013-01-02 01:02:00,
2013-01-01 20:12:00,40.0,-99.9,29.96,NNW,333,8.0,11.0,-999,-99.99,,,-99.99,,2013-01-02 01:12:00,
2013-01-01 20:22:00,40.0,-99.9,29.96,NNW,332,8.0,11.0,-999,-99.99,,,-99.99,,2013-01-02 01:22:00,
2013-01-01 20:33:00,40.0,-99.9,29.96,NNW,335,9.0,12.0,-999,-99.99,,,-99.99,,2013-01-02 01:33:00,
2013-01-01 20:42:00,40.0,-99.9,29.95,NNW,345,8.0,11.0,-999,-99.99,,,-99.99,,2013-01-02 01:42:00,
2013-01-01 20:53:00,40.0,-99.9,29.95,NNW,342,9.0,13.0,-999,-99.99,,,-99.99,,2013-01-02 01:53:00,
2013-01-01 21:02:00,40.0,-99.9,29.95,NNW,343,9.0,15.0,-999,-99.99,,,-99.99,,2013-01-02 02:02:00,
2013-01-01 21:12:00,40.0,-99.9,29.95,NNW,344,9.0,16.0,-999,-99.99,,,-99.99,,2013-01-02 02:12:00,
2013-01-01 21:22:00,40.0,-99.9,29.95,NNW,347,9.0,13.0,-999,-99.99,,,-99.99,,2013-01-02 02:22:00,
2013-01-01 21:33:00,40.0,-99.9,29.95,NNW,338,5.0,11.0,-999,-99.99,,,-99.99,,2013-01-02 02:33:00,
2013-01-01 21:43:00,40.0,-99.9,29.95,North,350,6.0,11.0,-999,-99.99,,,-99.99,,2013-01-02 02:43:00,
2013-01-01 21:53:00,40.0,-99.9,29.96,North,354,7.0,12.0,-999,-99.99,,,-99.99,,2013-01-02 02:53:00,
2013-01-01 22:02:00,40.0,-99.9,29.97,North,351,5.0,10.0,-999,-99.99,,,-99.99,,2013-01-02 03:02:00,
2013-01-01 22:12:00,40.0,-99.9,29.97,NNW,347,6.0,13.0,-999,-99.99,,,-99.99,,2013-01-02 03:12:00,
2013-01-01 22:22:00,40.0,-99.9,29.97,North,354,5.0,9.0,-999,-99.99,,,-99.99,,2013-01-02 03:22:00,
2013-01-01 22:32:00,40.0,-99.9,29.98,NNW,347,7.0,16.0,-999,-99.99,,,-99.99,,2013-01-02 03:32:00,
2013-01-01 22:42:00,40.0,-99.9,29.98,North,351,9.0,17.0,-999,-99.99,,,-99.99,,2013-01-02 03:42:00,
2013-01-01 22:53:00,40.0,-99.9,29.97,North,356,6.0,13.0,-999,-99.99,,,-99.99,,2013-01-02 03:53:00,
2013-01-01 23:03:00,39.0,-99.9,29.97,NNW,347,6.0,13.0,-999,-99.99,,,-99.99,,2013-01-02 04:03:00,
2013-01-01 23:12:00,39.0,-99.9,29.98,North,353,9.0,17.0,-999,-99.99,,,-99.99,,2013-01-02 04:12:00,
2013-01-01 23:22:00,39.0,-99.9,29.98,NNW,343,9.0,15.0,-999,-99.99,,,-99.99,,2013-01-02 04:22:00,
2013-01-01 23:33:00,39.0,-99.9,29.99,NNW,342,7.0,16.0,-999,-99.99,,,-99.99,,2013-01-02 04:33:00,
2013-01-01 23:42:00,39.0,-99.9,29.99,NNW,347,6.0,12.0,-999,-99.99,,,-99.99,,2013-01-02 04:42:00,
2013-01-01 23:53:00,39.0,-99.9,29.99,North,354,6.0,13.0,-999,-99.99,,,-99.99,,2013-01-02 04:53:00,